Time;durP1;ratioP1;P1;durP2;ratioP2;P2;SDS_P1;SDS_P2;PMS_P1;PMS_P2;Temp;Humidity;BMP_temperature;BMP_pressure;BME280_temperature;BME280_humidity;BME280_pressure;Samples;Min_cycle;Max_cycle;Signal;HPM_P1;HPM_P2
2021/04/08 00:00:07;;;;;;;7.32;2.75;;;;;;;;;;4991959;28;20069;-60
2021/04/08 00:02:34;;;;;;;5.68;2.70;;;;;;;;;;4987779;28;20062;-60
2021/04/08 00:05:02;;;;;;;5.55;3.15;;;;;;;;;;5006210;28;20058;-61
2021/04/08 00:07:29;;;;;;;4.70;3.17;;;;;;;;;;5004862;28;20052;-60
2021/04/08 00:09:56;;;;;;;7.60;3.13;;;;;;;;;;5007077;28;20061;-61
2021/04/08 00:12:24;;;;;;;5.22;2.95;;;;;;;;;;5004714;28;20476;-60
2021/04/08 00:14:51;;;;;;;5.85;2.88;;;;;;;;;;5005308;28;20050;-61
2021/04/08 00:17:19;;;;;;;7.15;3.08;;;;;;;;;;5008910;28;20145;-60
2021/04/08 00:19:47;;;;;;;6.03;2.75;;;;;;;;;;5005404;28;20465;-59
2021/04/08 00:22:14;;;;;;;6.65;3.30;;;;;;;;;;5006816;28;20069;-60
2021/04/08 00:24:42;;;;;;;3.40;2.40;;;;;;;;;;5003918;28;20544;-60
2021/04/08 00:27:10;;;;;;;5.75;3.20;;;;;;;;;;5001800;28;20081;-61
2021/04/08 00:29:37;;;;;;;4.78;3.05;;;;;;;;;;5007483;28;20489;-60
2021/04/08 00:32:04;;;;;;;8.35;2.92;;;;;;;;;;5004833;28;20062;-61
2021/04/08 00:34:33;;;;;;;4.97;3.22;;;;;;;;;;5006104;28;20061;-60
2021/04/08 00:37:00;;;;;;;6.57;2.63;;;;;;;;;;5002276;28;20056;-61
2021/04/08 00:39:27;;;;;;;5.88;2.78;;;;;;;;;;5006756;28;20056;-60
2021/04/08 00:41:55;;;;;;;6.63;2.83;;;;;;;;;;4995226;28;20471;-61
2021/04/08 00:44:22;;;;;;;5.95;2.80;;;;;;;;;;5006172;28;20077;-59
2021/04/08 00:46:49;;;;;;;9.70;3.20;;;;;;;;;;5010111;28;20537;-59
2021/04/08 00:49:17;;;;;;;5.78;2.85;;;;;;;;;;5002096;28;20729;-59
2021/04/08 00:51:45;;;;;;;4.75;2.92;;;;;;;;;;5000894;28;20572;-59
2021/04/08 00:54:12;;;;;;;6.50;2.55;;;;;;;;;;5001295;28;20092;-61
2021/04/08 00:56:40;;;;;;;8.02;3.83;;;;;;;;;;5004571;28;20058;-60
2021/04/08 00:59:07;;;;;;;4.90;2.47;;;;;;;;;;5006170;28;20056;-60
2021/04/08 01:01:34;;;;;;;4.88;2.60;;;;;;;;;;5002980;28;20137;-61
2021/04/08 01:04:02;;;;;;;4.72;2.38;;;;;;;;;;5006069;28;20371;-61
2021/04/08 01:06:29;;;;;;;8.93;2.75;;;;;;;;;;5004098;28;20049;-60
2021/04/08 01:08:58;;;;;;;4.25;2.58;;;;;;;;;;4997935;28;20646;-60
2021/04/08 01:11:25;;;;;;;3.42;2.10;;;;;;;;;;4995579;28;20081;-61
2021/04/08 01:13:53;;;;;;;4.93;2.70;;;;;;;;;;4997641;28;20494;-60
2021/04/08 01:16:24;;;;;;;4.53;2.83;;;;;;;;;;4995743;28;20101;-60
2021/04/08 01:18:57;;;;;;;4.45;2.70;;;;;;;;;;4998469;28;20474;-60
2021/04/08 01:21:32;;;;;;;4.78;2.72;;;;;;;;;;4997373;28;20065;-60
2021/04/08 01:24:30;;;;;;;7.63;2.55;;;;;;;;;;4999464;28;20053;-60
2021/04/08 01:27:16;;;;;;;5.97;3.20;;;;;;;;;;4997686;28;20054;-60
2021/04/08 01:29:50;;;;;;;4.70;2.90;;;;;;;;;;4997031;28;20046;-61
2021/04/08 01:32:18;;;;;;;5.82;2.72;;;;;;;;;;5000128;28;20058;-60
2021/04/08 01:34:47;;;;;;;4.70;2.40;;;;;;;;;;4998309;28;20482;-61
2021/04/08 01:37:17;;;;;;;10.50;2.80;;;;;;;;;;4998341;28;20050;-60
2021/04/08 01:39:45;;;;;;;8.43;2.45;;;;;;;;;;4997885;28;20046;-60
2021/04/08 01:42:14;;;;;;;4.18;2.17;;;;;;;;;;4996404;28;20048;-61
2021/04/08 01:44:42;;;;;;;7.38;2.38;;;;;;;;;;4998226;28;20064;-60
2021/04/08 01:47:12;;;;;;;5.95;3.33;;;;;;;;;;4997870;28;20052;-60
2021/04/08 01:49:41;;;;;;;4.35;2.17;;;;;;;;;;4996862;28;20053;-60
2021/04/08 01:52:08;;;;;;;7.72;2.97;;;;;;;;;;4997239;28;20081;-60
2021/04/08 01:54:37;;;;;;;5.47;3.15;;;;;;;;;;4997173;28;20385;-60
2021/04/08 01:57:07;;;;;;;8.70;3.35;;;;;;;;;;4999470;28;20057;-60
2021/04/08 01:59:35;;;;;;;9.05;3.55;;;;;;;;;;5000779;28;20042;-61
2021/04/08 02:02:04;;;;;;;9.00;3.33;;;;;;;;;;5001057;28;20127;-61
2021/04/08 02:04:31;;;;;;;10.38;3.53;;;;;;;;;;5000862;28;20049;-60
2021/04/08 02:07:01;;;;;;;7.07;3.08;;;;;;;;;;5000609;28;20136;-61
2021/04/08 02:09:29;;;;;;;7.28;3.10;;;;;;;;;;5002709;28;20142;-60
2021/04/08 02:11:58;;;;;;;11.55;3.17;;;;;;;;;;5000842;28;20054;-60
2021/04/08 02:14:25;;;;;;;6.57;3.08;;;;;;;;;;5000944;28;20555;-60
2021/04/08 02:16:53;;;;;;;4.45;2.67;;;;;;;;;;5000164;28;20153;-60
2021/04/08 02:19:22;;;;;;;7.20;2.75;;;;;;;;;;5000789;28;20057;-60
2021/04/08 02:21:51;;;;;;;7.90;2.88;;;;;;;;;;5001146;28;20082;-60
2021/04/08 02:24:20;;;;;;;7.95;2.85;;;;;;;;;;5001722;28;20061;-60
2021/04/08 02:26:48;;;;;;;3.92;2.50;;;;;;;;;;5001189;28;20046;-60
2021/04/08 02:29:16;;;;;;;4.22;2.55;;;;;;;;;;5000573;28;20047;-60
2021/04/08 02:31:44;;;;;;;6.28;2.78;;;;;;;;;;4999958;28;20136;-59
2021/04/08 02:34:12;;;;;;;4.82;2.92;;;;;;;;;;5000776;28;20437;-59
2021/04/08 02:36:40;;;;;;;4.75;2.53;;;;;;;;;;5001223;28;20559;-59
2021/04/08 02:39:08;;;;;;;5.45;2.58;;;;;;;;;;4999860;28;20145;-59
2021/04/08 02:41:38;;;;;;;7.78;2.63;;;;;;;;;;5002953;28;20136;-59
2021/04/08 02:44:06;;;;;;;6.15;2.72;;;;;;;;;;4999059;28;20450;-60
2021/04/08 02:46:33;;;;;;;6.07;2.47;;;;;;;;;;5000869;28;20562;-60
2021/04/08 02:49:02;;;;;;;7.78;2.47;;;;;;;;;;5001096;28;20057;-60
2021/04/08 02:51:33;;;;;;;4.50;2.70;;;;;;;;;;5000982;28;20073;-60
2021/04/08 02:54:06;;;;;;;5.28;2.47;;;;;;;;;;5004046;28;20068;-60
2021/04/08 02:56:35;;;;;;;5.03;2.55;;;;;;;;;;5001951;28;20080;-60
2021/04/08 02:59:06;;;;;;;3.63;2.65;;;;;;;;;;4999429;28;20042;-60
2021/04/08 03:01:36;;;;;;;4.75;2.90;;;;;;;;;;5000606;28;20882;-61
2021/04/08 03:04:06;;;;;;;6.72;3.38;;;;;;;;;;5000931;28;20078;-60
2021/04/08 03:06:35;;;;;;;7.50;3.05;;;;;;;;;;4999004;28;20049;-60
2021/04/08 03:09:02;;;;;;;5.07;2.95;;;;;;;;;;4998453;28;20786;-60
2021/04/08 03:11:31;;;;;;;5.53;2.78;;;;;;;;;;4999969;28;20060;-60
2021/04/08 03:14:00;;;;;;;5.10;2.83;;;;;;;;;;4999648;28;20148;-60
2021/04/08 03:16:31;;;;;;;6.03;2.60;;;;;;;;;;4999993;28;20509;-61
2021/04/08 03:18:59;;;;;;;7.85;2.97;;;;;;;;;;4999602;28;20058;-60
2021/04/08 03:21:27;;;;;;;6.45;3.60;;;;;;;;;;5000474;28;20262;-61
2021/04/08 03:23:54;;;;;;;5.07;2.45;;;;;;;;;;5000826;28;20389;-60
2021/04/08 03:26:22;;;;;;;7.95;3.13;;;;;;;;;;5000952;28;20155;-61
2021/04/08 03:28:50;;;;;;;6.72;3.03;;;;;;;;;;4999308;28;20499;-61
2021/04/08 03:31:19;;;;;;;5.60;2.95;;;;;;;;;;4999704;28;20756;-61
2021/04/08 03:33:47;;;;;;;5.05;2.92;;;;;;;;;;5000769;28;20604;-60
2021/04/08 03:36:15;;;;;;;8.70;2.63;;;;;;;;;;5000109;28;20058;-60
2021/04/08 03:38:42;;;;;;;5.65;3.40;;;;;;;;;;5000335;28;20076;-60
2021/04/08 03:41:10;;;;;;;7.20;3.25;;;;;;;;;;5002903;28;20140;-60
2021/04/08 03:43:37;;;;;;;7.32;3.05;;;;;;;;;;5001222;28;20146;-60
2021/04/08 03:46:06;;;;;;;8.32;4.47;;;;;;;;;;5000209;28;21254;-60
2021/04/08 03:48:34;;;;;;;5.32;3.17;;;;;;;;;;5000217;28;20054;-60
2021/04/08 03:51:03;;;;;;;7.18;3.38;;;;;;;;;;4998379;28;20045;-60
2021/04/08 03:53:31;;;;;;;6.07;3.30;;;;;;;;;;5001519;28;20046;-60
2021/04/08 03:55:59;;;;;;;6.15;3.70;;;;;;;;;;4997563;28;20318;-61
2021/04/08 03:58:26;;;;;;;7.55;3.72;;;;;;;;;;4999089;28;20574;-59
2021/04/08 04:00:54;;;;;;;7.63;3.85;;;;;;;;;;4999269;28;20050;-60
2021/04/08 04:03:28;;;;;;;8.07;3.68;;;;;;;;;;4809078;28;10000598;-61
2021/04/08 04:05:55;;;;;;;9.65;3.70;;;;;;;;;;684719;28;10002039;-60
2021/04/08 04:08:23;;;;;;;7.93;3.92;;;;;;;;;;4979414;28;20481;-60
2021/04/08 04:10:51;;;;;;;10.07;4.38;;;;;;;;;;4978423;28;20601;-60
2021/04/08 04:13:18;;;;;;;11.40;3.85;;;;;;;;;;4979934;28;20056;-61
2021/04/08 04:15:46;;;;;;;8.77;3.72;;;;;;;;;;4979177;28;20137;-60
2021/04/08 04:18:17;;;;;;;11.43;4.22;;;;;;;;;;4977641;28;20157;-61
2021/04/08 04:20:45;;;;;;;8.02;4.30;;;;;;;;;;4978660;28;20129;-61
2021/04/08 04:23:12;;;;;;;10.07;4.25;;;;;;;;;;4980295;28;20137;-60
2021/04/08 04:25:41;;;;;;;6.63;3.78;;;;;;;;;;4979527;28;20053;-60
2021/04/08 04:28:08;;;;;;;10.35;4.45;;;;;;;;;;4977624;28;20132;-61
2021/04/08 04:30:35;;;;;;;9.60;4.20;;;;;;;;;;4978567;28;20142;-60
2021/04/08 04:33:03;;;;;;;13.43;3.85;;;;;;;;;;4978542;28;20600;-60
2021/04/08 04:35:30;;;;;;;15.40;4.25;;;;;;;;;;4979520;28;20046;-60
2021/04/08 04:37:58;;;;;;;7.53;3.20;;;;;;;;;;4978491;28;20379;-61
2021/04/08 04:40:26;;;;;;;11.77;3.80;;;;;;;;;;4981606;28;20637;-60
2021/04/08 04:42:54;;;;;;;13.13;4.28;;;;;;;;;;4978843;28;20117;-61
2021/04/08 04:45:21;;;;;;;12.50;3.78;;;;;;;;;;4979018;28;20453;-61
2021/04/08 04:47:48;;;;;;;11.63;4.38;;;;;;;;;;4978024;28;20104;-61
2021/04/08 04:50:16;;;;;;;9.43;4.05;;;;;;;;;;4979061;28;20413;-60
2021/04/08 04:52:44;;;;;;;10.93;4.03;;;;;;;;;;4978544;28;20066;-60
2021/04/08 04:55:12;;;;;;;10.75;3.75;;;;;;;;;;4977981;28;20061;-60
2021/04/08 04:57:40;;;;;;;9.95;4.43;;;;;;;;;;4978179;28;20050;-60
2021/04/08 05:00:09;;;;;;;7.30;3.83;;;;;;;;;;4977371;28;20057;-60
2021/04/08 05:02:36;;;;;;;10.95;4.05;;;;;;;;;;4985778;28;20050;-60
2021/04/08 05:05:04;;;;;;;9.60;3.95;;;;;;;;;;4999587;28;20061;-61
2021/04/08 05:07:31;;;;;;;9.73;3.95;;;;;;;;;;5005883;28;20120;-61
2021/04/08 05:09:59;;;;;;;9.00;4.28;;;;;;;;;;5005987;28;20116;-61
2021/04/08 05:12:26;;;;;;;9.23;3.75;;;;;;;;;;5013742;28;20057;-61
2021/04/08 05:14:53;;;;;;;11.48;3.65;;;;;;;;;;5016187;28;20074;-60
2021/04/08 05:17:21;;;;;;;8.48;4.30;;;;;;;;;;5005532;28;20053;-61
2021/04/08 05:19:50;;;;;;;7.25;3.58;;;;;;;;;;5005954;28;20552;-61
2021/04/08 05:22:19;;;;;;;8.18;3.83;;;;;;;;;;5006318;28;20148;-61
2021/04/08 05:24:46;;;;;;;13.77;4.30;;;;;;;;;;5006274;28;20070;-61
2021/04/08 05:27:14;;;;;;;10.05;4.03;;;;;;;;;;5006278;28;20050;-60
2021/04/08 05:29:41;;;;;;;10.10;3.72;;;;;;;;;;5005957;28;20049;-61
2021/04/08 05:32:09;;;;;;;5.70;3.78;;;;;;;;;;5007873;28;20116;-60
2021/04/08 05:34:37;;;;;;;8.88;4.63;;;;;;;;;;5005889;28;20334;-60
2021/04/08 05:37:04;;;;;;;8.57;3.45;;;;;;;;;;5010566;28;20129;-60
2021/04/08 05:39:32;;;;;;;9.13;3.63;;;;;;;;;;5024490;28;20132;-60
2021/04/08 05:41:59;;;;;;;6.90;3.78;;;;;;;;;;5009923;28;20054;-60
2021/04/08 05:44:26;;;;;;;8.77;3.65;;;;;;;;;;5024577;28;20049;-61
2021/04/08 05:46:54;;;;;;;5.20;3.60;;;;;;;;;;5008394;28;20358;-61
2021/04/08 05:49:22;;;;;;;7.57;3.38;;;;;;;;;;5006200;28;20047;-60
2021/04/08 05:51:50;;;;;;;8.32;3.95;;;;;;;;;;5010490;28;20556;-60
2021/04/08 05:54:18;;;;;;;8.43;4.55;;;;;;;;;;5009474;28;20135;-62
2021/04/08 05:56:45;;;;;;;6.07;4.22;;;;;;;;;;5009316;28;20112;-62
2021/04/08 05:59:12;;;;;;;13.32;4.15;;;;;;;;;;5008924;28;20053;-62
2021/04/08 06:01:40;;;;;;;9.07;4.03;;;;;;;;;;5009630;28;20111;-62
2021/04/08 06:04:07;;;;;;;9.80;4.20;;;;;;;;;;5013407;28;20468;-62
2021/04/08 06:06:34;;;;;;;9.85;4.30;;;;;;;;;;5029946;28;20144;-61
2021/04/08 06:09:03;;;;;;;19.08;4.95;;;;;;;;;;5014468;28;20060;-61
2021/04/08 06:11:30;;;;;;;8.85;4.05;;;;;;;;;;5006574;28;20042;-61
2021/04/08 06:13:58;;;;;;;7.43;4.45;;;;;;;;;;5009299;28;20490;-61
2021/04/08 06:16:25;;;;;;;11.77;4.32;;;;;;;;;;5008759;28;20053;-61
2021/04/08 06:18:52;;;;;;;15.30;5.35;;;;;;;;;;5008744;28;20050;-61
2021/04/08 06:21:20;;;;;;;10.65;5.20;;;;;;;;;;4999206;28;20439;-61
2021/04/08 06:23:48;;;;;;;10.75;4.75;;;;;;;;;;5009118;28;20078;-61
2021/04/08 06:26:16;;;;;;;11.80;5.97;;;;;;;;;;5007309;28;20093;-61
2021/04/08 06:28:43;;;;;;;15.10;5.97;;;;;;;;;;4998264;28;20101;-61
2021/04/08 06:31:11;;;;;;;11.70;5.20;;;;;;;;;;5000171;28;20057;-61
2021/04/08 06:33:39;;;;;;;15.20;5.65;;;;;;;;;;5004051;28;20445;-61
2021/04/08 06:36:09;;;;;;;14.40;5.47;;;;;;;;;;5011194;28;20063;-61
2021/04/08 06:38:38;;;;;;;12.05;5.38;;;;;;;;;;5001525;28;20049;-61
2021/04/08 06:41:05;;;;;;;12.18;5.25;;;;;;;;;;5007168;28;20081;-60
2021/04/08 06:43:39;;;;;;;13.45;4.78;;;;;;;;;;5006699;28;20046;-60
2021/04/08 06:46:08;;;;;;;11.73;5.18;;;;;;;;;;5001397;28;20060;-60
2021/04/08 06:48:39;;;;;;;13.35;4.75;;;;;;;;;;5002265;28;20115;-60
2021/04/08 06:51:10;;;;;;;10.23;4.82;;;;;;;;;;5002921;28;20538;-60
2021/04/08 06:53:37;;;;;;;10.18;4.65;;;;;;;;;;4993553;28;20042;-60
2021/04/08 06:56:08;;;;;;;7.20;4.32;;;;;;;;;;5002210;28;20494;-60
2021/04/08 06:58:37;;;;;;;9.57;4.65;;;;;;;;;;5002245;28;20142;-60
2021/04/08 07:01:19;;;;;;;10.32;4.38;;;;;;;;;;5003429;28;20085;-60
2021/04/08 07:03:47;;;;;;;8.82;4.68;;;;;;;;;;4997167;28;20069;-61
2021/04/08 07:06:16;;;;;;;9.65;4.38;;;;;;;;;;4985307;28;20486;-61
2021/04/08 07:08:44;;;;;;;10.68;4.43;;;;;;;;;;4982677;28;20058;-61
2021/04/08 07:11:12;;;;;;;10.68;4.47;;;;;;;;;;4983685;28;20473;-61
2021/04/08 07:13:43;;;;;;;7.45;4.38;;;;;;;;;;4984143;28;20394;-61
2021/04/08 07:16:14;;;;;;;11.63;4.78;;;;;;;;;;4984645;28;20110;-61
2021/04/08 07:18:42;;;;;;;9.98;4.38;;;;;;;;;;4983540;28;20060;-61
2021/04/08 07:21:10;;;;;;;11.68;4.93;;;;;;;;;;4981338;28;20455;-61
2021/04/08 07:23:37;;;;;;;9.70;4.70;;;;;;;;;;4984295;28;20129;-61
2021/04/08 07:26:07;;;;;;;10.88;5.07;;;;;;;;;;4984593;28;20052;-62
2021/04/08 07:28:35;;;;;;;12.82;5.15;;;;;;;;;;4981807;28;20605;-62
2021/04/08 07:31:27;;;;;;;12.95;6.35;;;;;;;;;;4983804;28;20049;-62
2021/04/08 07:33:56;;;;;;;15.90;6.40;;;;;;;;;;4984420;28;20660;-62
2021/04/08 07:36:25;;;;;;;14.90;6.95;;;;;;;;;;4980355;28;20058;-62
2021/04/08 07:38:53;;;;;;;11.98;6.53;;;;;;;;;;4984167;28;20442;-62
2021/04/08 07:41:24;;;;;;;10.60;6.63;;;;;;;;;;4982807;28;20397;-62
2021/04/08 07:44:03;;;;;;;11.50;6.10;;;;;;;;;;4980745;28;20054;-61
2021/04/08 07:46:36;;;;;;;14.73;7.20;;;;;;;;;;4982153;28;20057;-60
2021/04/08 07:49:04;;;;;;;14.93;7.50;;;;;;;;;;4978439;28;20567;-61
2021/04/08 07:51:33;;;;;;;14.15;6.93;;;;;;;;;;4980642;28;20188;-61
2021/04/08 07:54:13;;;;;;;12.90;6.70;;;;;;;;;;4983197;28;20052;-61
2021/04/08 07:56:41;;;;;;;14.07;7.55;;;;;;;;;;4984359;28;20054;-60
2021/04/08 07:59:15;;;;;;;13.00;7.10;;;;;;;;;;4982898;28;20513;-60
2021/04/08 08:01:46;;;;;;;13.02;6.95;;;;;;;;;;4981634;28;20050;-60
2021/04/08 08:04:21;;;;;;;11.52;6.97;;;;;;;;;;4987100;28;20054;-60
2021/04/08 08:06:49;;;;;;;17.92;7.72;;;;;;;;;;5003134;28;20091;-61
2021/04/08 08:09:22;;;;;;;9.85;6.90;;;;;;;;;;5003091;28;20537;-61
2021/04/08 08:11:50;;;;;;;15.73;7.68;;;;;;;;;;5002571;28;20062;-61
2021/04/08 08:14:31;;;;;;;15.57;7.35;;;;;;;;;;5004109;28;20149;-61
2021/04/08 08:17:03;;;;;;;11.50;6.78;;;;;;;;;;4999760;28;20525;-62
2021/04/08 08:19:31;;;;;;;15.35;7.50;;;;;;;;;;5003331;28;20081;-61
2021/04/08 08:22:00;;;;;;;11.40;7.13;;;;;;;;;;5001425;28;20050;-61
2021/04/08 08:24:28;;;;;;;15.07;7.18;;;;;;;;;;5003691;28;20445;-61
2021/04/08 08:26:56;;;;;;;14.65;7.57;;;;;;;;;;5000725;28;20524;-62
2021/04/08 08:29:26;;;;;;;14.10;7.00;;;;;;;;;;4996228;28;20061;-61
2021/04/08 08:31:54;;;;;;;13.13;7.18;;;;;;;;;;5000371;28;20058;-62
2021/04/08 08:34:25;;;;;;;10.05;6.65;;;;;;;;;;5003245;28;20054;-62
2021/04/08 08:36:53;;;;;;;10.52;6.80;;;;;;;;;;5002399;28;20146;-62
2021/04/08 08:39:23;;;;;;;16.10;7.43;;;;;;;;;;5003363;28;20042;-61
2021/04/08 08:41:51;;;;;;;11.35;7.10;;;;;;;;;;5002660;28;20551;-61
2021/04/08 08:44:20;;;;;;;12.20;6.47;;;;;;;;;;5003444;28;20813;-62
2021/04/08 08:46:50;;;;;;;11.15;7.10;;;;;;;;;;4999080;28;20054;-61
2021/04/08 08:49:21;;;;;;;11.95;6.68;;;;;;;;;;4998716;28;20514;-62
2021/04/08 08:51:50;;;;;;;12.15;7.20;;;;;;;;;;5001196;28;20127;-60
2021/04/08 08:54:19;;;;;;;17.13;8.45;;;;;;;;;;5002293;28;20049;-60
2021/04/08 08:56:46;;;;;;;13.90;6.95;;;;;;;;;;5003883;28;20057;-60
2021/04/08 08:59:14;;;;;;;12.57;7.25;;;;;;;;;;5001175;28;20560;-60
2021/04/08 09:01:42;;;;;;;16.48;8.45;;;;;;;;;;5000765;28;20622;-60
2021/04/08 09:04:11;;;;;;;10.98;6.88;;;;;;;;;;4997532;28;20198;-60
2021/04/08 09:06:56;;;;;;;15.27;6.93;;;;;;;;;;4996455;28;20053;-60
2021/04/08 09:09:26;;;;;;;10.43;6.95;;;;;;;;;;4998442;28;20085;-61
2021/04/08 09:11:55;;;;;;;18.20;7.95;;;;;;;;;;5005868;28;20050;-61
2021/04/08 09:14:23;;;;;;;14.38;7.38;;;;;;;;;;5007112;28;20085;-61
2021/04/08 09:16:52;;;;;;;14.85;7.28;;;;;;;;;;5003398;28;20082;-62
2021/04/08 09:19:25;;;;;;;19.45;7.40;;;;;;;;;;5005664;28;20057;-61
2021/04/08 09:21:54;;;;;;;10.88;6.00;;;;;;;;;;5004856;28;20054;-62
2021/04/08 09:24:24;;;;;;;14.25;6.63;;;;;;;;;;5006300;28;20046;-62
2021/04/08 09:26:57;;;;;;;9.57;6.20;;;;;;;;;;5004373;28;20110;-62
2021/04/08 09:29:48;;;;;;;10.95;6.55;;;;;;;;;;5003166;28;20046;-62
2021/04/08 09:32:27;;;;;;;14.10;7.28;;;;;;;;;;5006819;28;20160;-61
2021/04/08 09:35:09;;;;;;;14.07;6.97;;;;;;;;;;5006395;28;20458;-61
2021/04/08 09:38:04;;;;;;;14.18;6.70;;;;;;;;;;5005073;28;20577;-62
2021/04/08 09:40:52;;;;;;;13.02;6.55;;;;;;;;;;4975092;28;20048;-62
2021/04/08 09:43:21;;;;;;;12.20;5.97;;;;;;;;;;5002422;28;20081;-61
2021/04/08 09:45:53;;;;;;;10.50;6.05;;;;;;;;;;5005662;28;20056;-61
2021/04/08 09:48:23;;;;;;;13.57;6.53;;;;;;;;;;5004815;28;20136;-61
2021/04/08 09:50:52;;;;;;;9.88;6.20;;;;;;;;;;4989646;28;20047;-61
2021/04/08 09:53:21;;;;;;;12.27;6.35;;;;;;;;;;4987594;28;20503;-61
2021/04/08 09:55:55;;;;;;;10.13;6.57;;;;;;;;;;4990099;28;20058;-61
2021/04/08 09:58:25;;;;;;;9.77;5.90;;;;;;;;;;5004239;28;20054;-61
2021/04/08 10:00:54;;;;;;;7.75;5.32;;;;;;;;;;5009338;28;20046;-61
2021/04/08 10:03:30;;;;;;;14.75;6.28;;;;;;;;;;5008508;28;20136;-61
2021/04/08 10:05:58;;;;;;;12.68;6.20;;;;;;;;;;5009502;28;20045;-61
2021/04/08 10:08:26;;;;;;;10.02;6.10;;;;;;;;;;5009236;28;20053;-61
2021/04/08 10:10:55;;;;;;;11.30;6.43;;;;;;;;;;5006077;28;20056;-61
2021/04/08 10:13:24;;;;;;;13.27;7.28;;;;;;;;;;5008307;28;20425;-61
2021/04/08 10:15:53;;;;;;;10.38;6.03;;;;;;;;;;5009095;28;20557;-61
2021/04/08 10:18:22;;;;;;;10.45;5.75;;;;;;;;;;5006822;28;20049;-61
2021/04/08 10:20:50;;;;;;;13.98;6.25;;;;;;;;;;5008933;28;20575;-62
2021/04/08 10:23:30;;;;;;;11.50;6.03;;;;;;;;;;5006183;28;20351;-62
2021/04/08 10:25:59;;;;;;;9.73;6.50;;;;;;;;;;5003538;28;20056;-62
2021/04/08 10:28:27;;;;;;;10.60;6.00;;;;;;;;;;5005958;28;20046;-62
2021/04/08 10:30:54;;;;;;;12.02;6.22;;;;;;;;;;5004532;28;20580;-61
2021/04/08 10:33:22;;;;;;;8.10;5.35;;;;;;;;;;5006573;28;20561;-62
2021/04/08 10:35:50;;;;;;;13.82;5.93;;;;;;;;;;5007190;28;20054;-62
2021/04/08 10:38:18;;;;;;;9.52;5.78;;;;;;;;;;5006424;28;20161;-62
2021/04/08 10:40:50;;;;;;;9.80;5.93;;;;;;;;;;5006825;28;20042;-62
2021/04/08 10:43:19;;;;;;;8.40;5.82;;;;;;;;;;5006166;28;20038;-60
2021/04/08 10:45:53;;;;;;;9.05;5.93;;;;;;;;;;5004659;28;20057;-62
2021/04/08 10:48:22;;;;;;;9.38;5.78;;;;;;;;;;5008379;28;20046;-61
2021/04/08 10:50:50;;;;;;;14.82;7.13;;;;;;;;;;5001508;28;20050;-61
2021/04/08 10:53:19;;;;;;;16.85;7.00;;;;;;;;;;5007708;28;20054;-62
2021/04/08 10:55:47;;;;;;;10.90;6.70;;;;;;;;;;5006471;28;20046;-61
2021/04/08 10:58:27;;;;;;;11.32;6.40;;;;;;;;;;5007496;28;20445;-61
2021/04/08 11:00:55;;;;;;;11.90;6.30;;;;;;;;;;5005276;28;20398;-61
2021/04/08 11:03:23;;;;;;;9.93;6.05;;;;;;;;;;5005318;28;20518;-61
2021/04/08 11:05:51;;;;;;;10.93;5.65;;;;;;;;;;4988596;28;20050;-61
2021/04/08 11:08:20;;;;;;;13.00;6.43;;;;;;;;;;4981718;28;20354;-61
2021/04/08 11:10:48;;;;;;;7.55;5.75;;;;;;;;;;4987625;28;20129;-61
2021/04/08 11:13:16;;;;;;;8.77;5.72;;;;;;;;;;4988217;28;20077;-61
2021/04/08 11:15:45;;;;;;;8.82;5.75;;;;;;;;;;4985840;28;20050;-61
2021/04/08 11:18:14;;;;;;;9.35;5.32;;;;;;;;;;4987741;28;20391;-61
2021/04/08 11:20:44;;;;;;;14.50;5.80;;;;;;;;;;4986724;28;20050;-61
2021/04/08 11:23:13;;;;;;;9.68;5.20;;;;;;;;;;4986506;28;20124;-61
2021/04/08 11:25:41;;;;;;;11.38;5.30;;;;;;;;;;4988054;28;20141;-61
2021/04/08 11:28:09;;;;;;;8.70;5.28;;;;;;;;;;4975720;28;20136;-60
2021/04/08 11:30:38;;;;;;;11.25;5.13;;;;;;;;;;4982222;28;20134;-60
2021/04/08 11:33:07;;;;;;;16.58;6.05;;;;;;;;;;4986432;28;20057;-60
2021/04/08 11:35:38;;;;;;;10.05;5.63;;;;;;;;;;4984177;28;20680;-60
2021/04/08 11:38:09;;;;;;;10.23;5.55;;;;;;;;;;4985731;28;20054;-60
2021/04/08 11:40:37;;;;;;;12.80;6.07;;;;;;;;;;4990596;28;20054;-60
2021/04/08 11:43:20;;;;;;;11.02;6.28;;;;;;;;;;4986777;28;20105;-60
2021/04/08 11:45:49;;;;;;;9.25;5.53;;;;;;;;;;4986422;28;20045;-60
2021/04/08 11:48:21;;;;;;;11.15;5.55;;;;;;;;;;4985021;28;20148;-61
2021/04/08 11:50:50;;;;;;;14.00;5.55;;;;;;;;;;4975464;28;20875;-61
2021/04/08 11:53:19;;;;;;;10.57;5.30;;;;;;;;;;4986531;28;20058;-61
2021/04/08 11:55:48;;;;;;;11.98;5.45;;;;;;;;;;4982472;28;20410;-61
2021/04/08 11:58:25;;;;;;;8.80;5.45;;;;;;;;;;4984876;28;20523;-61
2021/04/08 12:00:53;;;;;;;10.75;5.85;;;;;;;;;;4986460;28;20461;-61
2021/04/08 12:03:25;;;;;;;9.02;5.43;;;;;;;;;;4981255;28;20497;-61
2021/04/08 12:05:52;;;;;;;6.65;4.65;;;;;;;;;;4980979;28;20539;-61
2021/04/08 12:08:39;;;;;;;8.50;5.47;;;;;;;;;;4983010;28;20124;-61
2021/04/08 12:11:07;;;;;;;11.93;5.47;;;;;;;;;;4984203;28;20050;-61
2021/04/08 12:13:35;;;;;;;10.40;5.85;;;;;;;;;;4988787;28;20064;-61
2021/04/08 12:16:05;;;;;;;10.18;5.95;;;;;;;;;;4985676;28;20359;-61
2021/04/08 12:18:34;;;;;;;7.78;4.95;;;;;;;;;;4982713;28;20471;-61
2021/04/08 12:21:09;;;;;;;11.57;6.85;;;;;;;;;;4985794;28;20133;-61
2021/04/08 12:23:38;;;;;;;14.90;6.22;;;;;;;;;;4993493;28;20551;-61
2021/04/08 12:26:07;;;;;;;13.23;5.95;;;;;;;;;;4985138;28;20080;-62
2021/04/08 12:28:35;;;;;;;12.18;5.63;;;;;;;;;;4980106;28;20065;-62
2021/04/08 12:31:03;;;;;;;12.60;5.43;;;;;;;;;;4984651;28;20511;-62
2021/04/08 12:33:32;;;;;;;8.45;5.20;;;;;;;;;;4985265;28;20154;-61
2021/04/08 12:36:02;;;;;;;15.25;5.93;;;;;;;;;;4985989;28;20486;-62
2021/04/08 12:38:30;;;;;;;9.82;5.50;;;;;;;;;;4983568;28;20487;-61
2021/04/08 12:40:58;;;;;;;10.50;5.40;;;;;;;;;;4983106;28;20482;-61
2021/04/08 12:43:26;;;;;;;10.73;5.65;;;;;;;;;;4985754;28;20058;-62
2021/04/08 12:45:54;;;;;;;8.32;5.10;;;;;;;;;;4981222;28;20571;-62
2021/04/08 12:48:23;;;;;;;7.95;5.28;;;;;;;;;;4984144;28;20057;-61
2021/04/08 12:50:51;;;;;;;7.43;4.78;;;;;;;;;;4981326;28;20050;-62
2021/04/08 12:53:23;;;;;;;8.90;4.95;;;;;;;;;;4983316;28;20068;-61
2021/04/08 12:55:51;;;;;;;10.43;5.07;;;;;;;;;;4983906;28;20134;-62
2021/04/08 12:58:18;;;;;;;7.90;5.50;;;;;;;;;;4981927;28;20048;-61
2021/04/08 13:00:47;;;;;;;8.50;4.93;;;;;;;;;;4982385;28;20065;-61
2021/04/08 13:03:14;;;;;;;10.80;5.00;;;;;;;;;;4980020;28;20073;-61
2021/04/08 13:05:43;;;;;;;10.27;5.22;;;;;;;;;;5003222;28;20069;-61
2021/04/08 13:08:11;;;;;;;9.48;4.97;;;;;;;;;;5004421;28;20060;-61
2021/04/08 13:10:40;;;;;;;10.10;4.97;;;;;;;;;;5005710;28;20056;-61
2021/04/08 13:13:08;;;;;;;10.60;5.53;;;;;;;;;;5004650;28;20050;-62
2021/04/08 13:15:37;;;;;;;15.43;7.28;;;;;;;;;;5004889;28;20045;-61
2021/04/08 13:18:05;;;;;;;7.88;4.68;;;;;;;;;;4995554;28;20046;-61
2021/04/08 13:20:34;;;;;;;7.22;4.70;;;;;;;;;;5002151;28;20437;-62
2021/04/08 13:23:02;;;;;;;7.63;4.70;;;;;;;;;;5004643;28;20053;-62
2021/04/08 13:25:31;;;;;;;10.13;5.20;;;;;;;;;;5004475;28;20054;-63
2021/04/08 13:28:00;;;;;;;8.23;4.68;;;;;;;;;;5003717;28;20054;-62
2021/04/08 13:30:29;;;;;;;9.18;5.18;;;;;;;;;;5003592;28;20077;-61
2021/04/08 13:32:57;;;;;;;9.63;4.40;;;;;;;;;;5003652;28;20054;-62
2021/04/08 13:35:25;;;;;;;10.13;5.20;;;;;;;;;;5003923;28;20046;-63
2021/04/08 13:37:54;;;;;;;9.93;4.70;;;;;;;;;;5002424;28;20457;-61
2021/04/08 13:40:22;;;;;;;8.38;4.68;;;;;;;;;;5004398;28;20054;-62
2021/04/08 13:42:50;;;;;;;7.55;4.65;;;;;;;;;;5003281;28;20104;-61
2021/04/08 13:45:19;;;;;;;10.77;4.75;;;;;;;;;;5000198;28;20487;-61
2021/04/08 13:47:47;;;;;;;8.95;4.93;;;;;;;;;;4994852;28;20057;-61
2021/04/08 13:50:16;;;;;;;7.50;4.50;;;;;;;;;;4998821;28;20129;-61
2021/04/08 13:52:44;;;;;;;8.68;3.75;;;;;;;;;;5003703;28;20105;-61
2021/04/08 13:55:13;;;;;;;9.50;4.88;;;;;;;;;;5007678;28;20038;-61
2021/04/08 13:57:42;;;;;;;11.32;4.63;;;;;;;;;;5004544;28;20049;-62
2021/04/08 14:00:13;;;;;;;9.68;4.88;;;;;;;;;;5006586;28;20050;-61
2021/04/08 14:02:43;;;;;;;12.13;4.20;;;;;;;;;;5005575;28;20065;-61
2021/04/08 14:05:11;;;;;;;11.15;4.53;;;;;;;;;;5005693;28;20115;-61
2021/04/08 14:07:39;;;;;;;10.40;4.82;;;;;;;;;;5005697;28;20044;-63
2021/04/08 14:10:08;;;;;;;10.43;5.35;;;;;;;;;;5007731;28;20170;-71
2021/04/08 14:12:35;;;;;;;9.95;4.60;;;;;;;;;;5008148;28;20096;-71
2021/04/08 14:15:03;;;;;;;11.48;5.00;;;;;;;;;;5007828;28;20129;-71
2021/04/08 14:17:31;;;;;;;7.90;4.88;;;;;;;;;;5008018;28;20111;-74
2021/04/08 14:20:00;;;;;;;17.40;4.47;;;;;;;;;;5003843;28;20073;-72
2021/04/08 14:22:28;;;;;;;9.80;4.80;;;;;;;;;;5008752;28;20148;-71
2021/04/08 14:24:55;;;;;;;8.52;4.80;;;;;;;;;;5011867;28;20113;-71
2021/04/08 14:27:23;;;;;;;9.40;4.47;;;;;;;;;;5012780;28;20513;-72
2021/04/08 14:29:51;;;;;;;11.48;5.18;;;;;;;;;;5007602;28;20058;-72
2021/04/08 14:32:19;;;;;;;7.18;4.63;;;;;;;;;;5007720;28;20477;-72
2021/04/08 14:34:47;;;;;;;13.77;5.28;;;;;;;;;;5009289;28;20053;-71
2021/04/08 14:37:16;;;;;;;7.30;4.43;;;;;;;;;;5006428;28;20054;-71
2021/04/08 14:39:44;;;;;;;10.23;5.13;;;;;;;;;;5008133;28;20080;-70
2021/04/08 14:42:14;;;;;;;5.75;4.57;;;;;;;;;;5006430;28;20042;-74
2021/04/08 14:44:42;;;;;;;12.18;4.90;;;;;;;;;;5007179;28;20791;-72
2021/04/08 14:47:10;;;;;;;8.25;4.68;;;;;;;;;;5003743;28;20116;-74